Time;durP1;ratioP1;P1;durP2;ratioP2;P2;SDS_P1;SDS_P2;PMS_P1;PMS_P2;Temp;Humidity;BMP_temperature;BMP_pressure;BME280_temperature;BME280_humidity;BME280_pressure;Samples;Min_cycle;Max_cycle;Signal;HPM_P1;HPM_P2
2021/12/26 00:00:18;;;;;;;6.73;3.40;;;-2.80;94.90;;;;;;5048054;28;20028;-44
2021/12/26 00:02:44;;;;;;;5.33;3.83;;;-2.80;94.70;;;;;;5048503;28;20352;-44
2021/12/26 00:05:10;;;;;;;6.20;3.77;;;-2.80;94.80;;;;;;5049641;28;20037;-42
2021/12/26 00:07:36;;;;;;;7.13;3.00;;;-2.80;94.80;;;;;;5048667;28;20048;-44
2021/12/26 00:10:04;;;;;;;5.33;2.60;;;-2.80;94.70;;;;;;5049756;28;20061;-43
2021/12/26 00:12:30;;;;;;;4.30;2.57;;;-2.80;94.70;;;;;;5048573;28;20062;-42
2021/12/26 00:14:56;;;;;;;4.33;2.63;;;-2.80;94.80;;;;;;5048427;28;20041;-44
2021/12/26 00:17:22;;;;;;;3.33;2.50;;;-2.80;95.10;;;;;;5049260;28;20437;-43
2021/12/26 00:19:48;;;;;;;3.10;2.53;;;-2.80;94.70;;;;;;5048460;28;20025;-43
2021/12/26 00:22:14;;;;;;;3.63;2.47;;;-2.80;94.70;;;;;;5049160;28;20361;-44
2021/12/26 00:24:40;;;;;;;3.60;2.30;;;-2.80;94.70;;;;;;5049156;28;20067;-43
2021/12/26 00:27:05;;;;;;;2.93;2.30;;;-2.80;94.80;;;;;;5048186;28;20040;-43
2021/12/26 00:29:31;;;;;;;3.57;2.73;;;-2.80;94.80;;;;;;5049305;28;20473;-42
2021/12/26 00:31:56;;;;;;;4.20;2.30;;;-2.80;94.80;;;;;;5048695;28;20040;-44
2021/12/26 00:34:22;;;;;;;3.37;2.00;;;-2.80;94.80;;;;;;5048725;28;20151;-44
2021/12/26 00:36:47;;;;;;;3.80;2.50;;;-2.80;94.90;;;;;;5048919;28;20473;-45
2021/12/26 00:39:15;;;;;;;2.73;2.03;;;-2.80;95.00;;;;;;5049407;28;20033;-43
2021/12/26 00:41:41;;;;;;;4.83;2.60;;;-2.90;95.00;;;;;;5048843;28;20124;-43
2021/12/26 00:44:08;;;;;;;2.37;2.00;;;-2.90;95.00;;;;;;5048407;28;20116;-43
2021/12/26 00:46:35;;;;;;;5.17;2.07;;;-2.90;95.00;;;;;;5048695;28;20670;-43
2021/12/26 00:49:00;;;;;;;4.33;2.60;;;-2.90;95.10;;;;;;5044264;28;20152;-44
2021/12/26 00:51:26;;;;;;;5.10;2.57;;;-2.90;95.00;;;;;;5048823;28;20120;-44
2021/12/26 00:53:52;;;;;;;2.90;2.03;;;-2.90;95.00;;;;;;5048425;28;20029;-44
2021/12/26 00:56:19;;;;;;;2.67;2.07;;;-2.90;94.90;;;;;;5048436;28;20033;-43
2021/12/26 00:58:46;;;;;;;3.10;2.30;;;-2.90;95.00;;;;;;5048236;28;20025;-43
2021/12/26 01:01:11;;;;;;;3.17;2.20;;;-2.90;95.00;;;;;;5043519;28;20068;-42
2021/12/26 01:03:37;;;;;;;6.23;2.50;;;-2.90;95.10;;;;;;5042712;28;20044;-43
2021/12/26 01:06:04;;;;;;;3.20;2.37;;;-2.90;95.10;;;;;;5046942;28;20036;-43
2021/12/26 01:08:31;;;;;;;5.73;2.90;;;-3.00;95.00;;;;;;5045274;28;20076;-43
2021/12/26 01:11:03;;;;;;;4.20;2.40;;;-3.00;95.00;;;;;;5045586;28;20033;-42
2021/12/26 01:13:32;;;;;;;2.90;2.20;;;-3.00;95.00;;;;;;5047929;28;20024;-42
2021/12/26 01:16:01;;;;;;;5.47;2.23;;;-3.00;95.00;;;;;;5047857;28;20029;-44
2021/12/26 01:18:32;;;;;;;3.97;2.27;;;-3.00;94.90;;;;;;5047930;28;20670;-43
2021/12/26 01:21:04;;;;;;;3.43;2.47;;;-3.00;95.00;;;;;;5047841;28;20025;-44
2021/12/26 01:23:30;;;;;;;3.23;2.43;;;-3.00;94.90;;;;;;5047683;28;20025;-44
2021/12/26 01:25:56;;;;;;;3.33;2.60;;;-3.00;94.80;;;;;;5048081;28;20029;-44
2021/12/26 01:28:23;;;;;;;3.00;2.20;;;-3.00;94.80;;;;;;5048247;28;20025;-44
2021/12/26 01:30:50;;;;;;;3.93;2.77;;;-3.00;94.90;;;;;;5047847;28;20670;-45
2021/12/26 01:33:19;;;;;;;4.17;2.50;;;-3.00;94.80;;;;;;5047079;28;20033;-43
2021/12/26 01:35:46;;;;;;;4.43;2.37;;;-3.00;94.90;;;;;;5048024;28;20037;-44
2021/12/26 01:38:14;;;;;;;3.13;2.30;;;-3.00;94.90;;;;;;5047460;28;20029;-44
2021/12/26 01:40:50;;;;;;;4.23;2.03;;;-3.00;94.90;;;;;;5048177;28;20032;-44
2021/12/26 01:43:19;;;;;;;3.37;2.03;;;-3.00;95.00;;;;;;5048148;28;20049;-43
2021/12/26 01:45:45;;;;;;;2.53;1.90;;;-3.00;95.10;;;;;;5046772;28;20017;-43
2021/12/26 01:48:12;;;;;;;3.30;2.17;;;-3.00;95.20;;;;;;5048090;28;20049;-43
2021/12/26 01:50:39;;;;;;;3.27;2.00;;;-3.00;95.30;;;;;;5047776;28;20491;-44
2021/12/26 01:53:05;;;;;;;2.97;2.20;;;-3.10;95.30;;;;;;5046628;28;20029;-44
2021/12/26 01:55:46;;;;;;;4.13;2.53;;;-3.10;95.40;;;;;;5047113;28;20452;-45
2021/12/26 01:58:18;;;;;;;3.57;2.37;;;-3.00;95.30;;;;;;5027118;28;20048;-43
2021/12/26 02:00:46;;;;;;;5.80;2.45;;;-3.10;95.30;;;;;;5043261;28;20017;-45
2021/12/26 02:03:13;;;;;;;3.80;2.07;;;-3.00;95.40;;;;;;5047615;28;20021;-44
2021/12/26 02:05:39;;;;;;;4.20;2.20;;;-3.10;95.30;;;;;;5046769;28;20025;-43
2021/12/26 02:08:06;;;;;;;3.97;2.20;;;-3.10;95.30;;;;;;5046952;28;20036;-43
2021/12/26 02:10:31;;;;;;;3.17;2.37;;;-3.00;95.40;;;;;;5046701;28;20029;-43
2021/12/26 02:12:57;;;;;;;3.43;2.10;;;-3.00;95.40;;;;;;5046555;28;20036;-43
2021/12/26 02:15:23;;;;;;;3.13;2.07;;;-3.00;95.40;;;;;;5046857;28;20025;-44
2021/12/26 02:17:49;;;;;;;3.43;2.37;;;-3.00;95.40;;;;;;5047435;28;20021;-43
2021/12/26 02:20:19;;;;;;;3.23;2.00;;;-3.00;95.40;;;;;;5047032;28;20074;-43
2021/12/26 02:22:49;;;;;;;3.87;2.20;;;-3.00;95.30;;;;;;5047061;28;20068;-43
2021/12/26 02:25:29;;;;;;;5.00;2.10;;;-3.00;95.20;;;;;;5047727;28;20016;-43
2021/12/26 02:27:55;;;;;;;4.00;2.23;;;-3.10;95.20;;;;;;5036983;28;20040;-43
2021/12/26 02:30:22;;;;;;;3.47;2.40;;;-3.10;95.10;;;;;;5047303;28;20021;-43
2021/12/26 02:32:49;;;;;;;3.27;2.33;;;-3.10;95.00;;;;;;5047217;28;20096;-43
2021/12/26 02:35:16;;;;;;;2.57;2.13;;;-3.10;95.00;;;;;;5046304;28;20025;-43
2021/12/26 02:37:42;;;;;;;3.77;2.33;;;-3.10;95.00;;;;;;5046987;28;20059;-44
2021/12/26 02:40:09;;;;;;;2.37;2.03;;;-3.10;95.00;;;;;;5046516;28;20442;-43
2021/12/26 02:42:35;;;;;;;3.37;2.37;;;-3.10;95.10;;;;;;5046668;28;20021;-44
2021/12/26 02:45:00;;;;;;;4.07;2.87;;;-3.10;95.00;;;;;;5047153;28;20481;-43
2021/12/26 02:47:37;;;;;;;3.23;2.30;;;-3.10;94.90;;;;;;5045489;28;20354;-43
2021/12/26 02:50:18;;;;;;;5.33;1.90;;;-3.10;94.90;;;;;;5046667;28;20818;-42
2021/12/26 02:52:45;;;;;;;2.87;2.00;;;-3.10;94.90;;;;;;5046163;28;20487;-42
2021/12/26 02:55:12;;;;;;;2.87;2.30;;;-3.10;94.70;;;;;;5046387;28;20104;-44
2021/12/26 02:57:38;;;;;;;3.03;2.73;;;-3.10;94.70;;;;;;5046517;28;20037;-43
2021/12/26 03:00:10;;;;;;;2.47;1.93;;;-3.20;94.60;;;;;;5046010;28;20388;-43
2021/12/26 03:02:40;;;;;;;4.22;1.90;;;-3.20;94.60;;;;;;5045843;28;20025;-43
2021/12/26 03:05:06;;;;;;;3.13;2.27;;;-3.20;94.60;;;;;;5046808;28;20032;-43
2021/12/26 03:07:32;;;;;;;4.20;2.20;;;-3.20;94.50;;;;;;5046156;28;20470;-42
2021/12/26 03:10:00;;;;;;;3.10;2.27;;;-3.20;94.50;;;;;;5044363;28;20116;-43
2021/12/26 03:12:28;;;;;;;3.60;2.27;;;-3.20;94.30;;;;;;5046239;28;20028;-40
2021/12/26 03:14:54;;;;;;;3.83;2.30;;;-3.10;94.60;;;;;;5046754;28;20021;-43
2021/12/26 03:17:20;;;;;;;3.13;1.97;;;-3.10;94.20;;;;;;5046474;28;20455;-44
2021/12/26 03:19:45;;;;;;;5.30;2.20;;;-3.10;94.10;;;;;;5046763;28;20028;-43
2021/12/26 03:22:12;;;;;;;2.43;2.20;;;-3.20;94.20;;;;;;5045868;28;20033;-43
2021/12/26 03:24:39;;;;;;;2.83;2.10;;;-3.20;94.10;;;;;;5046417;28;20021;-43
2021/12/26 03:27:05;;;;;;;3.70;2.40;;;-3.20;94.00;;;;;;5046443;28;20564;-43
2021/12/26 03:29:32;;;;;;;2.97;1.90;;;-3.20;94.10;;;;;;5045863;28;20078;-44
2021/12/26 03:31:58;;;;;;;4.03;2.20;;;-3.20;94.20;;;;;;5046267;28;20147;-43
2021/12/26 03:34:24;;;;;;;2.30;1.97;;;-3.20;94.10;;;;;;5046758;28;20071;-43
2021/12/26 03:36:52;;;;;;;2.77;2.03;;;-3.20;94.10;;;;;;5045618;28;20044;-44
2021/12/26 03:39:19;;;;;;;2.47;1.70;;;-3.20;94.00;;;;;;5046448;28;20044;-44
2021/12/26 03:41:45;;;;;;;2.33;1.93;;;-3.20;94.10;;;;;;5046673;28;20751;-43
2021/12/26 03:44:11;;;;;;;4.10;2.07;;;-3.20;94.10;;;;;;5045759;28;20128;-43
2021/12/26 03:46:37;;;;;;;2.70;1.93;;;-3.20;94.20;;;;;;5046370;28;20064;-43
2021/12/26 03:49:05;;;;;;;3.37;2.10;;;-3.20;94.20;;;;;;5045778;28;20072;-43
2021/12/26 03:51:32;;;;;;;2.67;1.90;;;-3.20;94.10;;;;;;5045465;28;20137;-42
2021/12/26 03:53:58;;;;;;;2.93;2.20;;;-3.20;94.10;;;;;;5046114;28;20028;-43
2021/12/26 03:56:23;;;;;;;2.80;1.77;;;-3.20;94.20;;;;;;5047803;28;20029;-44
2021/12/26 03:58:49;;;;;;;2.40;1.90;;;-3.20;94.20;;;;;;5048697;28;20172;-43
2021/12/26 04:01:15;;;;;;;2.60;2.07;;;-3.20;94.20;;;;;;5049877;28;20033;-42
2021/12/26 04:03:41;;;;;;;3.00;2.10;;;-3.20;94.20;;;;;;5049904;28;20134;-43
2021/12/26 04:06:06;;;;;;;2.87;2.20;;;-3.20;94.10;;;;;;5048936;28;20136;-43
2021/12/26 04:08:32;;;;;;;2.30;1.80;;;-3.20;94.00;;;;;;5049464;28;20777;-43
2021/12/26 04:10:57;;;;;;;4.07;2.30;;;-3.20;93.90;;;;;;5049731;28;20376;-44
2021/12/26 04:13:23;;;;;;;3.17;2.20;;;-3.20;94.00;;;;;;5048810;28;20033;-43
2021/12/26 04:15:49;;;;;;;2.17;1.97;;;-3.30;94.00;;;;;;5049363;28;20053;-43
2021/12/26 04:18:14;;;;;;;2.73;1.93;;;-3.30;94.00;;;;;;5050372;28;20032;-44
2021/12/26 04:20:40;;;;;;;2.93;2.00;;;-3.20;94.10;;;;;;5048542;28;20029;-43
2021/12/26 04:23:05;;;;;;;2.10;1.80;;;-3.20;94.10;;;;;;5049133;28;20056;-43
2021/12/26 04:25:31;;;;;;;2.83;2.10;;;-3.30;94.10;;;;;;5048548;28;20021;-43
2021/12/26 04:27:57;;;;;;;2.57;1.97;;;-3.30;94.10;;;;;;5049246;28;20032;-43
2021/12/26 04:30:23;;;;;;;3.07;2.00;;;-3.30;94.00;;;;;;5049098;28;20487;-44
2021/12/26 04:32:49;;;;;;;3.83;2.17;;;-3.30;94.00;;;;;;5048568;28;20520;-43
2021/12/26 04:35:16;;;;;;;2.80;2.10;;;-3.30;93.90;;;;;;5049109;28;20492;-43
2021/12/26 04:37:42;;;;;;;2.63;2.03;;;-3.30;94.00;;;;;;5048682;28;20063;-44
2021/12/26 04:40:10;;;;;;;3.27;2.30;;;-3.30;94.00;;;;;;5048699;28;20052;-44
2021/12/26 04:42:38;;;;;;;3.53;2.40;;;-3.30;93.90;;;;;;5048923;28;20068;-44
2021/12/26 04:45:08;;;;;;;2.60;1.80;;;-3.30;93.80;;;;;;5048829;28;20134;-44
2021/12/26 04:47:34;;;;;;;2.40;1.70;;;-3.30;93.80;;;;;;5048385;28;20025;-42
2021/12/26 04:50:14;;;;;;;3.13;1.97;;;-3.30;93.90;;;;;;5048331;28;20077;-42
2021/12/26 04:52:43;;;;;;;3.70;1.73;;;-3.30;93.90;;;;;;5038645;28;20068;-44
2021/12/26 04:55:10;;;;;;;2.50;1.90;;;-3.30;94.20;;;;;;5048287;28;20025;-44
2021/12/26 04:57:36;;;;;;;3.07;2.13;;;-3.30;93.90;;;;;;5048456;28;20119;-43
2021/12/26 05:00:11;;;;;;;2.63;1.90;;;-3.40;93.90;;;;;;5039308;28;20113;-42
2021/12/26 05:02:39;;;;;;;2.37;1.70;;;-3.30;94.00;;;;;;5044662;28;20045;-43
2021/12/26 05:05:05;;;;;;;2.53;2.10;;;-3.30;94.00;;;;;;5048433;28;20029;-44
2021/12/26 05:07:31;;;;;;;3.43;2.23;;;-3.30;94.00;;;;;;5048429;28;20112;-42
2021/12/26 05:09:57;;;;;;;2.67;2.07;;;-3.30;93.90;;;;;;5047537;28;20129;-43
2021/12/26 05:12:24;;;;;;;2.87;1.80;;;-3.30;94.00;;;;;;5048230;28;20032;-43
2021/12/26 05:14:50;;;;;;;3.63;1.80;;;-3.40;94.00;;;;;;5047626;28;20028;-44
2021/12/26 05:17:16;;;;;;;3.00;2.20;;;-3.30;94.10;;;;;;5048500;28;20471;-43
2021/12/26 05:19:41;;;;;;;2.77;2.30;;;-3.30;94.10;;;;;;5048220;28;20040;-43
2021/12/26 05:22:07;;;;;;;2.43;1.77;;;-3.30;94.10;;;;;;5047855;28;20022;-43
2021/12/26 05:24:33;;;;;;;3.77;2.50;;;-3.40;94.10;;;;;;5047873;28;20067;-43
2021/12/26 05:26:59;;;;;;;3.23;2.17;;;-3.30;94.10;;;;;;5048023;28;20694;-42
2021/12/26 05:29:24;;;;;;;3.17;2.17;;;-3.30;94.00;;;;;;5047866;28;20048;-43
2021/12/26 05:31:50;;;;;;;2.87;1.90;;;-3.30;94.00;;;;;;5047980;28;20052;-42
2021/12/26 05:34:16;;;;;;;3.43;2.20;;;-3.30;94.10;;;;;;5048289;28;20396;-43
2021/12/26 05:36:41;;;;;;;2.80;2.10;;;-3.20;94.00;;;;;;5047430;28;20029;-43
2021/12/26 05:39:07;;;;;;;4.77;2.10;;;-3.10;93.90;;;;;;5036798;28;20449;-44
2021/12/26 05:41:33;;;;;;;2.73;2.10;;;-3.00;93.90;;;;;;5047793;28;20032;-42
2021/12/26 05:43:59;;;;;;;6.10;2.60;;;-3.00;93.80;;;;;;5047256;28;20024;-43
2021/12/26 05:46:24;;;;;;;4.50;2.70;;;-2.90;93.80;;;;;;5047682;28;20025;-43
2021/12/26 05:48:50;;;;;;;4.23;2.53;;;-2.80;93.70;;;;;;5047198;28;20055;-42
2021/12/26 05:51:16;;;;;;;3.13;2.27;;;-2.70;93.60;;;;;;5047400;28;20734;-43
2021/12/26 05:53:42;;;;;;;2.60;2.10;;;-2.70;93.50;;;;;;5047497;28;20043;-42
2021/12/26 05:56:08;;;;;;;4.50;1.87;;;-2.70;93.30;;;;;;5047711;28;20025;-42
2021/12/26 05:58:34;;;;;;;2.83;1.93;;;-2.70;93.30;;;;;;5046615;28;20024;-43
2021/12/26 06:00:59;;;;;;;2.47;1.90;;;-2.70;93.10;;;;;;5047299;28;20039;-43
2021/12/26 06:03:25;;;;;;;2.03;1.77;;;-2.70;93.10;;;;;;5047134;28;20067;-44
2021/12/26 06:05:51;;;;;;;3.03;1.90;;;-2.70;93.00;;;;;;5046771;28;20041;-44
2021/12/26 06:08:17;;;;;;;2.97;2.30;;;-2.80;93.00;;;;;;5047929;28;20029;-43
2021/12/26 06:10:43;;;;;;;2.50;2.07;;;-2.80;93.00;;;;;;5047202;28;20043;-44
2021/12/26 06:13:08;;;;;;;4.00;2.33;;;-2.80;93.00;;;;;;5046492;28;20040;-43
2021/12/26 06:15:34;;;;;;;2.37;2.03;;;-2.90;93.00;;;;;;5047459;28;20082;-43
2021/12/26 06:17:59;;;;;;;3.97;2.13;;;-2.80;93.10;;;;;;5046385;28;20029;-43
2021/12/26 06:20:25;;;;;;;2.63;1.90;;;-2.80;92.90;;;;;;5046745;28;20083;-44
2021/12/26 06:22:50;;;;;;;2.97;2.20;;;-2.80;93.00;;;;;;5047338;28;20033;-43
2021/12/26 06:25:16;;;;;;;3.93;2.20;;;-2.70;93.00;;;;;;5046728;28;20072;-42
2021/12/26 06:27:45;;;;;;;2.20;1.67;;;-2.70;93.10;;;;;;5046687;28;20056;-43
2021/12/26 06:30:11;;;;;;;2.63;2.30;;;-2.60;93.10;;;;;;5047342;28;20067;-43
2021/12/26 06:32:37;;;;;;;4.23;2.83;;;-2.60;93.10;;;;;;5046273;28;20493;-43
2021/12/26 06:35:04;;;;;;;3.53;2.60;;;-2.50;93.40;;;;;;5046887;28;20036;-43
2021/12/26 06:37:30;;;;;;;3.27;2.60;;;-2.50;93.20;;;;;;5046811;28;20025;-42
2021/12/26 06:39:56;;;;;;;4.60;2.60;;;-2.40;93.20;;;;;;5046139;28;20053;-42
2021/12/26 06:42:22;;;;;;;4.03;2.53;;;-2.40;93.30;;;;;;5047267;28;20052;-42
2021/12/26 06:44:49;;;;;;;2.93;2.17;;;-2.40;93.20;;;;;;5046840;28;20103;-43
2021/12/26 06:47:15;;;;;;;2.60;2.03;;;-2.30;93.30;;;;;;5046753;28;20159;-44
2021/12/26 06:49:42;;;;;;;4.70;2.60;;;-2.30;93.20;;;;;;5046079;28;20091;-43
2021/12/26 06:52:08;;;;;;;2.97;2.10;;;-2.30;93.10;;;;;;5046494;28;20013;-43
2021/12/26 06:54:34;;;;;;;2.53;2.20;;;-2.30;93.10;;;;;;5046145;28;20023;-43
2021/12/26 06:57:00;;;;;;;3.20;2.30;;;-2.30;93.00;;;;;;5046746;28;20532;-42
2021/12/26 06:59:25;;;;;;;2.67;2.20;;;-2.30;93.10;;;;;;5046567;28;20136;-44
2021/12/26 07:01:51;;;;;;;3.63;2.10;;;-2.30;93.10;;;;;;5046212;28;20167;-42
2021/12/26 07:04:17;;;;;;;5.37;2.70;;;-2.30;93.10;;;;;;5046365;28;20032;-43
2021/12/26 07:06:42;;;;;;;4.93;2.27;;;-2.30;93.00;;;;;;5046844;28;20154;-43
2021/12/26 07:09:08;;;;;;;3.10;2.47;;;-2.30;93.10;;;;;;5045584;28;20033;-43
2021/12/26 07:11:33;;;;;;;2.13;1.77;;;-2.30;93.10;;;;;;5046061;28;20044;-43
2021/12/26 07:13:59;;;;;;;2.83;1.97;;;-2.30;93.20;;;;;;5046557;28;20624;-43
2021/12/26 07:16:25;;;;;;;4.40;2.30;;;-2.30;93.20;;;;;;5045564;28;20155;-43
2021/12/26 07:18:51;;;;;;;2.60;2.00;;;-2.20;93.30;;;;;;5046307;28;20503;-42
2021/12/26 07:21:17;;;;;;;3.50;2.33;;;-2.20;93.30;;;;;;5046136;28;20025;-42
2021/12/26 07:23:42;;;;;;;3.93;2.17;;;-2.20;93.40;;;;;;5046584;28;20029;-43
2021/12/26 07:26:08;;;;;;;3.87;2.40;;;-2.20;93.40;;;;;;5046226;28;20118;-44
2021/12/26 07:28:33;;;;;;;3.53;2.13;;;-2.10;93.50;;;;;;5045447;28;20029;-42
2021/12/26 07:30:59;;;;;;;2.17;1.90;;;-2.10;93.50;;;;;;5047772;28;20029;-43
2021/12/26 07:33:24;;;;;;;2.77;2.00;;;-2.10;93.50;;;;;;5050125;28;20064;-43
2021/12/26 07:35:50;;;;;;;3.43;2.40;;;-2.10;93.60;;;;;;5049477;28;20047;-44
2021/12/26 07:38:18;;;;;;;3.27;2.43;;;-2.10;93.70;;;;;;5050524;28;20028;-44
2021/12/26 07:40:45;;;;;;;4.40;2.70;;;-2.10;93.60;;;;;;5049432;28;20154;-43
2021/12/26 07:43:10;;;;;;;3.93;2.67;;;-2.10;93.80;;;;;;5049646;28;20044;-43
2021/12/26 07:45:36;;;;;;;2.00;1.80;;;-2.10;93.80;;;;;;5049856;28;20044;-43
2021/12/26 07:48:02;;;;;;;3.53;2.40;;;-2.10;93.90;;;;;;5049467;28;20123;-43
2021/12/26 07:50:28;;;;;;;2.97;2.23;;;-2.10;94.00;;;;;;5049494;28;20167;-44
2021/12/26 07:52:54;;;;;;;3.03;2.37;;;-2.10;94.00;;;;;;5049646;28;20096;-43
2021/12/26 07:55:20;;;;;;;4.57;2.57;;;-2.10;94.00;;;;;;5050084;28;20025;-43
2021/12/26 07:57:48;;;;;;;3.93;2.57;;;-2.10;94.10;;;;;;5048540;28;20025;-42
2021/12/26 08:00:15;;;;;;;5.40;2.90;;;-2.10;94.10;;;;;;5050483;28;20100;-43
2021/12/26 08:02:44;;;;;;;3.53;2.60;;;-2.10;94.20;;;;;;5049577;28;20032;-46
2021/12/26 08:05:10;;;;;;;4.20;2.80;;;-2.10;94.30;;;;;;5048780;28;20033;-43
2021/12/26 08:07:35;;;;;;;4.37;2.80;;;-2.10;94.40;;;;;;5049599;28;20044;-43
2021/12/26 08:10:02;;;;;;;3.00;2.47;;;-2.10;94.40;;;;;;5049352;28;20029;-44
2021/12/26 08:12:27;;;;;;;4.27;2.87;;;-2.20;94.50;;;;;;5048679;28;20066;-43
2021/12/26 08:14:53;;;;;;;3.90;2.70;;;-2.20;94.50;;;;;;5049484;28;20033;-42
2021/12/26 08:17:18;;;;;;;4.43;2.90;;;-2.20;94.60;;;;;;5049304;28;20028;-45
2021/12/26 08:19:44;;;;;;;4.77;2.70;;;-2.20;94.60;;;;;;5049185;28;20017;-44
2021/12/26 08:22:09;;;;;;;4.87;3.27;;;-2.20;94.70;;;;;;5049140;28;20025;-43
2021/12/26 08:24:35;;;;;;;7.17;3.07;;;-2.20;94.70;;;;;;5048547;28;20017;-44
2021/12/26 08:27:01;;;;;;;4.70;3.70;;;-2.20;94.70;;;;;;5048856;28;20032;-43
2021/12/26 08:29:27;;;;;;;8.03;5.13;;;-2.20;94.70;;;;;;5049024;28;20033;-43
2021/12/26 08:31:56;;;;;;;6.10;3.90;;;-2.20;94.80;;;;;;5048334;28;20025;-43
2021/12/26 08:34:23;;;;;;;6.50;3.90;;;-2.20;94.70;;;;;;5049163;28;20021;-43
2021/12/26 08:37:02;;;;;;;7.13;3.90;;;-2.20;94.80;;;;;;5049283;28;20029;-43
2021/12/26 08:39:30;;;;;;;6.17;4.00;;;-2.10;94.80;;;;;;5048122;28;20066;-42
2021/12/26 08:41:56;;;;;;;5.30;3.37;;;-2.10;95.10;;;;;;5048605;28;20048;-42
2021/12/26 08:44:22;;;;;;;7.00;4.30;;;-2.10;94.70;;;;;;5049155;28;20426;-43
2021/12/26 08:46:48;;;;;;;7.97;4.67;;;-2.10;94.80;;;;;;5048700;28;20616;-44
2021/12/26 08:49:15;;;;;;;7.37;4.20;;;-2.10;94.80;;;;;;5048728;28;20045;-42
2021/12/26 08:51:42;;;;;;;6.87;3.80;;;-2.10;94.80;;;;;;5048774;28;20025;-43
2021/12/26 08:54:08;;;;;;;5.03;3.57;;;-2.10;94.90;;;;;;5047433;28;20491;-43
2021/12/26 08:56:33;;;;;;;5.17;3.53;;;-2.10;95.00;;;;;;5046236;28;20055;-43
2021/12/26 08:58:59;;;;;;;4.37;3.00;;;-2.10;95.10;;;;;;5049371;28;20048;-43
2021/12/26 09:01:25;;;;;;;5.17;3.20;;;-2.10;95.10;;;;;;5046097;28;20056;-43
2021/12/26 09:03:51;;;;;;;4.83;3.40;;;-2.10;95.20;;;;;;5047378;28;20029;-43
2021/12/26 09:06:16;;;;;;;6.17;3.50;;;-2.10;95.10;;;;;;5047898;28;20040;-43
2021/12/26 09:08:42;;;;;;;4.93;3.70;;;-2.10;95.10;;;;;;5046719;28;20372;-44
2021/12/26 09:11:08;;;;;;;4.03;2.90;;;-2.00;95.20;;;;;;5047029;28;20021;-44
2021/12/26 09:13:35;;;;;;;6.90;2.97;;;-2.00;95.30;;;;;;5049919;28;20077;-43
2021/12/26 09:16:01;;;;;;;4.03;2.87;;;-2.00;95.30;;;;;;5046549;28;20028;-44
2021/12/26 09:18:27;;;;;;;3.87;2.53;;;-1.90;95.40;;;;;;5046965;28;20063;-44
2021/12/26 09:20:52;;;;;;;3.60;2.67;;;-2.00;95.30;;;;;;5046959;28;20443;-44
2021/12/26 09:23:18;;;;;;;3.60;2.70;;;-1.90;95.40;;;;;;5047496;28;20050;-43
2021/12/26 09:25:44;;;;;;;4.30;3.33;;;-1.90;95.40;;;;;;5046705;28;20029;-43
2021/12/26 09:28:10;;;;;;;4.07;3.17;;;-1.80;95.50;;;;;;5046286;28;20112;-43
2021/12/26 09:30:36;;;;;;;4.63;3.40;;;-1.80;95.50;;;;;;5046700;28;20040;-43
2021/12/26 09:33:02;;;;;;;6.33;3.43;;;-1.80;95.60;;;;;;5047171;28;20067;-43
2021/12/26 09:35:28;;;;;;;6.37;2.80;;;-1.70;95.70;;;;;;5046251;28;20067;-44
2021/12/26 09:37:54;;;;;;;3.67;2.87;;;-1.70;95.70;;;;;;5047163;28;20515;-43
2021/12/26 09:40:20;;;;;;;5.00;2.80;;;-1.70;95.80;;;;;;5047182;28;20033;-43
2021/12/26 09:42:46;;;;;;;4.87;3.17;;;-1.60;95.90;;;;;;5045979;28;20021;-43
2021/12/26 09:45:12;;;;;;;4.70;2.83;;;-1.60;95.90;;;;;;5047439;28;20122;-44
2021/12/26 09:47:39;;;;;;;2.73;2.40;;;-1.60;96.00;;;;;;5038483;28;20785;-44
2021/12/26 09:50:07;;;;;;;4.07;2.50;;;-1.50;96.00;;;;;;5039675;28;20033;-43
2021/12/26 09:52:33;;;;;;;4.37;2.80;;;-1.50;96.00;;;;;;5047384;28;20021;-44
2021/12/26 09:54:59;;;;;;;3.93;3.00;;;-1.50;96.00;;;;;;5045626;28;20029;-44
2021/12/26 09:57:27;;;;;;;3.40;2.60;;;-1.40;96.10;;;;;;5047851;28;20021;-43
2021/12/26 09:59:53;;;;;;;5.37;3.17;;;-1.40;96.20;;;;;;5054435;28;20021;-42
2021/12/26 10:02:19;;;;;;;3.83;2.80;;;-1.30;96.20;;;;;;5046995;28;20388;-43
2021/12/26 10:04:47;;;;;;;4.87;3.30;;;-1.30;96.30;;;;;;5049464;28;20431;-43
2021/12/26 10:07:19;;;;;;;5.80;3.50;;;-1.30;96.30;;;;;;5048957;28;20373;-43
2021/12/26 10:09:47;;;;;;;4.53;3.23;;;-1.30;96.40;;;;;;5059448;28;20070;-43
2021/12/26 10:12:14;;;;;;;5.67;3.57;;;-1.20;96.50;;;;;;5049614;28;20032;-43
2021/12/26 10:14:43;;;;;;;5.60;3.10;;;-1.10;96.50;;;;;;5063047;28;20468;-44
2021/12/26 10:17:12;;;;;;;3.60;2.97;;;-1.00;96.50;;;;;;5045863;28;20024;-43
2021/12/26 10:19:44;;;;;;;5.03;3.13;;;-0.90;96.50;;;;;;5046218;28;20029;-44
2021/12/26 10:22:11;;;;;;;4.07;3.13;;;-0.80;96.50;;;;;;5048901;28;20523;-43
2021/12/26 10:24:43;;;;;;;7.37;4.17;;;-0.80;96.50;;;;;;5053926;28;20134;-43
2021/12/26 10:27:11;;;;;;;7.67;3.90;;;-0.70;96.50;;;;;;5055502;28;20070;-43
2021/12/26 10:29:45;;;;;;;6.05;4.25;;;-0.70;96.50;;;;;;5060507;28;20131;-43
2021/12/26 10:32:14;;;;;;;5.67;3.77;;;-0.70;96.50;;;;;;5045784;28;20029;-44
2021/12/26 10:34:45;;;;;;;4.30;3.10;;;-0.70;96.50;;;;;;5053576;28;20059;-41
2021/12/26 10:37:13;;;;;;;5.80;3.93;;;-0.70;96.60;;;;;;5055686;28;20072;-43
2021/12/26 10:39:46;;;;;;;5.95;4.70;;;-0.60;96.70;;;;;;5048821;28;20028;-44
2021/12/26 10:42:16;;;;;;;5.43;4.07;;;-0.60;96.80;;;;;;5058017;28;20032;-44
2021/12/26 10:44:51;;;;;;;7.70;4.85;;;-0.60;96.90;;;;;;5046689;28;20044;-45
2021/12/26 10:47:23;;;;;;;6.40;4.68;;;-0.60;97.00;;;;;;5045377;28;20051;-44
2021/12/26 10:49:54;;;;;;;7.80;4.57;;;-0.60;97.00;;;;;;5047858;28;20053;-44
2021/12/26 10:52:49;;;;;;;6.67;4.77;;;-0.60;97.10;;;;;;5047544;28;20056;-43
2021/12/26 10:55:20;;;;;;;6.78;4.07;;;-0.50;97.20;;;;;;5043001;28;20496;-44
2021/12/26 10:57:50;;;;;;;6.75;3.95;;;-0.50;97.20;;;;;;5045886;28;20043;-43
2021/12/26 11:00:16;;;;;;;7.60;4.40;;;-0.50;97.30;;;;;;5046200;28;20064;-41
2021/12/26 11:02:45;;;;;;;6.20;3.60;;;-0.40;97.40;;;;;;5045702;28;20492;-44
2021/12/26 11:05:14;;;;;;;6.80;4.75;;;-0.40;97.50;;;;;;5046382;28;20049;-44
2021/12/26 11:07:49;;;;;;;10.43;4.20;;;-0.40;97.50;;;;;;5048495;28;20104;-44
2021/12/26 11:10:39;;;;;;;7.20;4.38;;;-0.30;97.50;;;;;;5040333;28;20144;-44
2021/12/26 11:13:25;;;;;;;6.60;4.28;;;-0.30;97.60;;;;;;5050272;28;20024;-43
2021/12/26 11:15:57;;;;;;;5.83;4.00;;;-0.30;97.60;;;;;;5051348;28;20495;-43
2021/12/26 11:18:23;;;;;;;7.40;4.60;;;-0.30;97.90;;;;;;5049649;28;20111;-43
2021/12/26 11:20:48;;;;;;;6.55;4.03;;;-0.30;97.80;;;;;;5048173;28;20112;-44
2021/12/26 11:23:20;;;;;;;8.57;4.57;;;-0.20;97.90;;;;;;5049950;28;20693;-44
2021/12/26 11:25:50;;;;;;;5.83;4.40;;;-0.20;97.90;;;;;;5039674;28;20032;-43
2021/12/26 11:28:22;;;;;;;7.55;4.22;;;-0.10;98.00;;;;;;5049585;28;20678;-43
2021/12/26 11:30:48;;;;;;;5.97;3.85;;;-0.10;98.00;;;;;;5049924;28;20780;-42
2021/12/26 11:33:13;;;;;;;6.15;3.80;;;-0.10;98.10;;;;;;5050013;28;20107;-43
2021/12/26 11:35:40;;;;;;;5.07;4.00;;;0.00;98.10;;;;;;5049083;28;20086;-42
2021/12/26 11:38:10;;;;;;;6.75;4.05;;;0.00;98.20;;;;;;5049855;28;20827;-44
2021/12/26 11:40:37;;;;;;;5.47;4.05;;;0.10;98.20;;;;;;5049694;28;20048;-42
2021/12/26 11:43:31;;;;;;;7.15;4.28;;;0.10;98.30;;;;;;5049086;28;20080;-43
2021/12/26 11:46:08;;;;;;;6.07;4.25;;;0.10;98.30;;;;;;5049998;28;20040;-43
2021/12/26 11:49:06;;;;;;;5.40;4.22;;;0.20;98.30;;;;;;5048471;28;20049;-43
2021/12/26 11:52:01;;;;;;;5.60;4.07;;;0.20;98.40;;;;;;5049950;28;20399;-43
2021/12/26 11:54:46;;;;;;;6.38;4.25;;;0.20;98.40;;;;;;5049555;28;20024;-42
2021/12/26 11:57:40;;;;;;;10.88;4.65;;;0.20;98.40;;;;;;5049154;28;20404;-44
2021/12/26 12:00:09;;;;;;;;;;;0.30;98.50;;;;;;5049602;28;20506;-44
2021/12/26 12:02:47;;;;;;;6.75;4.63;;;0.30;98.60;;;;;;5049341;28;20327;-43
2021/12/26 12:05:24;;;;;;;5.85;4.05;;;0.30;98.60;;;;;;5049886;28;20024;-44
2021/12/26 12:08:00;;;;;;;6.32;4.55;;;0.30;98.70;;;;;;5048987;28;20035;-43
2021/12/26 12:10:35;;;;;;;7.72;5.25;;;0.40;98.80;;;;;;5048312;28;20055;-43
2021/12/26 12:13:02;;;;;;;6.80;4.78;;;0.40;99.00;;;;;;5051536;28;20070;-43
2021/12/26 12:16:00;;;;;;;7.82;4.80;;;0.50;99.00;;;;;;5056983;28;20103;-43
2021/12/26 12:18:32;;;;;;;7.97;5.28;;;0.50;99.10;;;;;;5043192;28;20857;-44
2021/12/26 12:21:10;;;;;;;6.72;4.63;;;0.50;99.10;;;;;;5053248;28;20021;-44
2021/12/26 12:23:55;;;;;;;5.53;4.55;;;0.60;99.20;;;;;;5051208;28;20024;-44
2021/12/26 12:26:56;;;;;;;4.72;3.83;;;0.50;99.20;;;;;;5047879;28;20021;-45
2021/12/26 12:29:21;;;;;;;5.70;4.15;;;0.60;99.30;;;;;;5027802;28;20083;-44
2021/12/26 12:31:51;;;;;;;5.68;4.13;;;0.60;99.30;;;;;;5042032;28;20021;-43
2021/12/26 12:34:16;;;;;;;6.05;4.43;;;0.60;99.40;;;;;;5048502;28;20037;-43
2021/12/26 12:36:45;;;;;;;7.38;4.60;;;0.50;99.50;;;;;;5038108;28;20382;-44
2021/12/26 12:39:19;;;;;;;6.45;5.13;;;0.50;99.50;;;;;;5046224;28;20025;-44
2021/12/26 12:41:51;;;;;;;9.95;5.68;;;0.60;99.60;;;;;;5048876;28;20032;-44
2021/12/26 12:44:30;;;;;;;7.72;5.35;;;0.50;99.70;;;;;;5048289;28;20389;-42
2021/12/26 12:46:58;;;;;;;8.90;5.88;;;0.50;99.80;;;;;;5046843;28;20060;-43
2021/12/26 12:49:46;;;;;;;8.93;6.05;;;0.60;99.90;;;;;;5046308;28;20045;-42
2021/12/26 12:52:37;;;;;;;9.55;5.88;;;0.60;99.90;;;;;;5047716;28;20021;-43